NACIONALNO OTVORENO PRVENSTVO HRVATSKE U KARTINGU
1. NAGRADA STANLEYBET KLADIONICE '10
Čakovec, 03.-04.07.2010.

KLASA 0
Poz. S.b. Vozač Klub Nac. Krug Vrijeme Zaostatak Bod.
1. 7 Tin Vorkapić KK Koprivnica HR 5 6:12,232 0:00,000 -
2. 4 Dorian Vargović Cobra Virovitica HR 5 6:12,538 0:00,306 -
3. 9 Jan Tisaj KK Koprivnica HR 5 6:19,222 0:06,990 -
4. 12 Matea Turk AK Info Kart HR 5 6:19,962 0:07,730 -
5. 8 Filip Vuković Cobra Virovitica HR 5 6:26,266 0:14,034 -
6. 11 Erik Trstenjak AKK Podravina Koprivnica HR 5 6:27,116 0:14,884 -
 
KLASA I - 1. UTRKA
Poz. S.b. Vozač Klub Nac. Krug Vrijeme Zaostatak Bod.
1. 112 Matija Kovačić KK 1 Zagreb HR 10 9:33,476 0:00,000 20
2. 111 Jan Pokos AK Speedy HR 10 9:38,304 0:04,828 15
3. 102 Muhammad Pličanić AK Info Kart HR 10 9:39,173 0:05,697 12
4. 113 Mark Lukač AK Info Kart HR 10 10:13,938 0:40,462 10
 
KLASA I - 2. UTRKA
Poz. S.b. Vozač Klub Nac. Krug Vrijeme Zaostatak Bod.
1. 111 Jan Pokos AK Speedy HR 10 9:40,720 0:00,000 20
2. 102 Muhammad Pličanić AK Info Kart HR 10 9:43,762 0:03,042 15
3. 112 Matija Kovačić KK 1 Zagreb HR 10 9:48,524 0:07,804 12
4. 113 Mark Lukač AK Info Kart HR 10 10:35,806 0:55,086 10
 
KLASA II - 1. UTRKA
Poz. S.b. Vozač Klub Nac. Krug Vrijeme Zaostatak Bod.
1. 201 Juraj Kovačić KK 1 Zagreb HR 10 9:06,161 0:00,000 20
2. 210 Luka Mavrin KK 1 Zagreb HR 10 9:09,390 0:03,229 15
3. 206 Damian Sekulić Cobra Virovitica HR 10 9:10,205 0:04,044 12
4. 207 Fran Tisaj KK Koprivnica HR 10 9:34,568 0:28,407 10
5. 209 Željko Romić Cobra Virovitica HR 10 9:55,232 0:49,071 8
 
KLASA II - 2. UTRKA
Poz. S.b. Vozač Klub Nac. Krug Vrijeme Zaostatak Bod.
1. 201 Juraj Kovačić KK 1 Zagreb HR 10 9:10,087 0:00,000 20
2. 206 Damian Sekulić Cobra Virovitica HR 10 9:15,901 0:05,814 15
3. 210 Luka Mavrin KK 1 Zagreb HR 10 9:16,020 0:05,933 12
4. 207 Fran Tisaj KK Koprivnica HR 10 9:38,537 0:28,450 10
5. 209 Željko Romić Cobra Virovitica HR 10 9:45,456 0:35,369 8
 
KLASA V - 1. UTRKA
Poz. S.b. Vozač Klub Nac. Krug Vrijeme Zaostatak Bod.
1. 515 Nikola Belohradski AKK Zanatlija HR 13 10:16,983 0:00,000 20
2. 502 Sven Gorup AKK Zanatlija HR 13 10:22,044 0:05,061 15
3. 510 Tomislav Pavlić KK 1 Zagreb HR 13 10:23,215 0:06,232 12
4. 503 Borna Vlašić AKK Podravina Koprivnica HR 13 10:34,887 0:17,904 10
 
KLASA V - 2. UTRKA
Poz. S.b. Vozač Klub Nac. Krug Vrijeme Zaostatak Bod.
1. 515 Nikola Belohradski AKK Zanatlija HR 13 10:23,672 0:00,000 20
2. 502 Sven Gorup AKK Zanatlija HR 13 10:27,207 0:03,535 15
3. 510 Tomislav Pavlić KK 1 Zagreb HR 13 10:28,889 0:05,217 12
4. 503 Borna Vlašić AKK Podravina Koprivnica HR 13 10:38,662 0:14,990 10
 
KLASA VII - 1. UTRKA
Poz. S.b. Vozač Klub Nac. Krug Vrijeme Zaostatak Bod.
1. 720 Nedjeljko Vucelić KK 1 Zagreb HR 15 11:44,556 0:00,000 20
2. 703 Žarko Martinjak KK Koprivnica HR 15 12:11,741 0:27,185 15
3. 714 Neven Perčić AK Matulji Racing HR 15 12:21,117 0:36,561 12
4. 707 Renato Dujmović AMK Buzet HR 15 12:30,053 0:45,497 10
5. 706 Marko Sitarić Cobra Virovitica HR 14 11:59,837 1 krug 8
6. 702 Branimir Rojko KK Koprivnica HR 14 12:01,586 1 krug 6
7. 708 Siniša Mišić Cobra Virovitica HR 14 12:09,448 1 krug 4
8. 705 Zlatko Banić SAK Split HR 14 12:18,265 1 krug 3
- 713 Ratko Medenec KK 1 Zagreb HR 2 odustao -
- 709 Zlatko Kovačić KK Koprivnica HR 0 odustao -
- 712 Sven Lukačić KK 1 Zagreb HR 0 odustao -
- 716 Kristijan Habulin KK 1 Zagreb HR 0 odustao -
 
KLASA VII - 2. UTRKA
Poz. S.b. Vozač Klub Nac. Krug Vrijeme Zaostatak Bod.
1. 716 Kristijan Habulin KK 1 Zagreb HR 15 11:47,777 0:00,000 20
2. 720 Nedjeljko Vucelić KK 1 Zagreb HR 15 11:48,388 0:00,611 15
3. 703 Žarko Martinjak KK Koprivnica HR 15 12:11,652 0:23,875 12
4. 707 Renato Dujmović AMK Buzet HR 15 12:14,507 0:26,730 10
5. 702 Branimir Rojko KK Koprivnica HR 15 12:34,840 0:47,063 8
6. 708 Siniša Mišić Cobra Virovitica HR 14 12:10,977 1 krug 6
7. 709 Zlatko Kovačić KK Koprivnica HR 14 12:19,712 1 krug 4
8. 705 Zlatko Banić SAK Split HR 14 12:19,890 1 krug 3
- 714 Neven Perčić AK Matulji Racing HR 7 odustao -
- 713 Ratko Medenec KK 1 Zagreb HR 2 odustao -
- 706 Marko Sitarić Cobra Virovitica HR 0 nije startao -
- 712 Sven Lukačić KK 1 Zagreb HR 0 nije startao -
 
KLASA VIII - 1. UTRKA
Poz. S.b. Vozač Klub Nac. Krug Vrijeme Zaostatak Bod.
1. 802 Ivijan Rajnović Cobra Virovitica HR 13 11:43,729 0:00,000 20
2. 809 Ivan Žovan KK 1 Zagreb HR 13 11:44,524 0:00,795 15
3. 801 Samir Smailagić AK Info Kart HR 13 11:44,733 0:01,004 12
4. 804 Tomislav Lovrenc AKK Podravina Koprivnica HR 13 11:45,183 0:01,454 10
5. 808 Krunoslav Žovan KK 1 Zagreb HR 13 11:50,513 0:06,784 8
 
KLASA VIII - 2. UTRKA
Poz. S.b. Vozač Klub Nac. Krug Vrijeme Zaostatak Bod.
1. 802 Ivijan Rajnović Cobra Virovitica HR 13 11:39,043 0:00,000 20
2. 801 Samir Smailagić AK Info Kart HR 13 11:41,482 0:02,439 15
3. 809 Ivan Žovan KK 1 Zagreb HR 13 11:43,009 0:03,966 12
4. 804 Tomislav Lovrenc AKK Podravina Koprivnica HR 13 11:43,360 0:04,317 10
5. 808 Krunoslav Žovan KK 1 Zagreb HR 13 11:49,070 0:10,027 8
 
PRVENSTVO HRVATSKE